Time;durP1;ratioP1;P1;durP2;ratioP2;P2;SDS_P1;SDS_P2;PMS_P1;PMS_P2;Temp;Humidity;BMP_temperature;BMP_pressure;BME280_temperature;BME280_humidity;BME280_pressure;Samples;Min_cycle;Max_cycle;Signal;HPM_P1;HPM_P2
2023/03/30 00:02:29;;;;;;;0.10;0.10;;;;;;;19.91;53.59;100549.91;5052458;28;20075;-71
2023/03/30 00:04:55;;;;;;;0.20;0.20;;;;;;;19.98;53.41;100547.63;5042244;28;20461;-70
2023/03/30 00:07:20;;;;;;;0.10;0.10;;;;;;;19.28;55.11;100530.22;5032432;28;20032;-70
2023/03/30 00:09:45;;;;;;;0.10;0.10;;;;;;;19.87;53.79;100524.31;5032345;28;20037;-71
2023/03/30 00:12:19;;;;;;;0.20;0.20;;;;;;;19.99;52.87;100526.59;5032477;28;20037;-71
2023/03/30 00:14:45;;;;;;;0.10;0.10;;;;;;;19.80;53.22;100523.88;5031902;28;20068;-70
2023/03/30 00:17:11;;;;;;;0.13;0.13;;;;;;;20.31;51.34;100517.69;5031857;28;20053;-71
2023/03/30 00:19:37;;;;;;;0.20;0.20;;;;;;;19.90;52.55;100512.84;5032228;28;20509;-71
2023/03/30 00:22:05;;;;;;;0.10;0.10;;;;;;;20.29;51.63;100515.25;5032518;28;20021;-71
2023/03/30 00:24:30;;;;;;;0.10;0.10;;;;;;;19.54;52.95;100514.41;5032184;28;20032;-71
2023/03/30 00:26:56;;;;;;;0.20;0.20;;;;;;;19.47;53.31;100507.69;5031695;28;20033;-70
2023/03/30 00:29:21;;;;;;;0.10;0.10;;;;;;;19.93;50.99;100503.25;5031839;28;20037;-71
2023/03/30 00:31:47;;;;;;;0.10;0.10;;;;;;;19.75;52.12;100507.56;5012204;28;20466;-70
2023/03/30 00:34:12;;;;;;;0.20;0.20;;;;;;;20.11;50.49;100503.25;5017849;28;20034;-71
2023/03/30 00:36:38;;;;;;;0.10;0.10;;;;;;;19.69;50.94;100500.59;5031500;28;20034;-70
2023/03/30 00:39:05;;;;;;;0.20;0.20;;;;;;;20.05;49.61;100501.69;5031496;28;20041;-72
2023/03/30 00:41:40;;;;;;;0.10;0.10;;;;;;;19.78;50.59;100503.44;5031748;28;20064;-71
2023/03/30 00:44:25;;;;;;;0.20;0.20;;;;;;;19.62;50.29;100491.13;5031320;28;20068;-70
2023/03/30 00:46:50;;;;;;;0.10;0.10;;;;;;;19.69;49.90;100481.50;5031450;28;20056;-70
2023/03/30 00:49:16;;;;;;;0.10;0.10;;;;;;;19.57;49.92;100474.84;5031929;28;20025;-72
2023/03/30 00:51:41;;;;;;;0.20;0.20;;;;;;;19.71;49.49;100487.47;5031606;28;20112;-71
2023/03/30 00:54:15;;;;;;;0.10;0.10;;;;;;;19.87;49.45;100477.16;5031477;28;20041;-71
2023/03/30 00:56:41;;;;;;;0.20;0.20;;;;;;;19.95;48.58;100466.38;5031480;28;20030;-74
2023/03/30 00:59:07;;;;;;;0.10;0.10;;;;;;;19.83;48.96;100473.41;5036626;28;20033;-71
2023/03/30 01:01:37;;;;;;;0.20;0.20;;;;;;;19.49;49.75;100481.78;5051826;28;20035;-71
2023/03/30 01:04:04;;;;;;;0.10;0.10;;;;;;;19.84;48.69;100480.47;5048349;28;20045;-71
2023/03/30 01:06:31;;;;;;;0.17;0.17;;;;;;;19.54;49.20;100473.50;5031036;28;20036;-71
2023/03/30 01:08:59;;;;;;;0.20;0.20;;;;;;;19.24;50.25;100468.44;5031119;28;20038;-70
2023/03/30 01:11:26;;;;;;;0.10;0.10;;;;;;;19.94;48.01;100459.31;5013303;28;20112;-72
2023/03/30 01:14:01;;;;;;;0.10;0.10;;;;;;;20.08;47.93;100459.38;5013554;28;20063;-70
2023/03/30 01:16:38;;;;;;;0.20;0.20;;;;;;;19.37;49.76;100466.94;5031776;28;20049;-72
2023/03/30 01:19:44;;;;;;;0.10;0.10;;;;;;;20.03;48.09;100470.34;5031121;28;20057;-70
2023/03/30 01:22:38;;;;;;;0.10;0.10;;;;;;;19.47;49.34;100478.53;5013453;28;20095;-71
2023/03/30 01:25:40;;;;;;;0.20;0.20;;;;;;;19.28;50.70;100486.63;5031308;28;20053;-71
2023/03/30 01:28:23;;;;;;;0.10;0.10;;;;;;;19.27;51.86;100476.03;5030649;28;20038;-72
2023/03/30 01:31:05;;;;;;;0.15;0.15;;;;;;;19.41;52.15;100479.69;5019397;28;20033;-71
2023/03/30 01:33:42;;;;;;;0.20;0.20;;;;;;;18.93;54.05;100473.41;5011604;28;20041;-72
2023/03/30 01:36:29;;;;;;;0.20;0.20;;;;;;;19.15;55.76;100476.44;5004018;28;20049;-71
2023/03/30 01:39:17;;;;;;;0.10;0.10;;;;;;;18.85;56.02;100463.16;5010763;28;20041;-70
2023/03/30 01:41:50;;;;;;;0.10;0.10;;;;;;;18.55;55.62;100452.59;5011427;28;20486;-71
2023/03/30 01:44:27;;;;;;;0.13;0.13;;;;;;;18.48;54.91;100443.94;5011213;28;20047;-72
2023/03/30 01:47:06;;;;;;;0.15;0.15;;;;;;;18.96;54.78;100442.91;5026970;28;20043;-72
2023/03/30 01:49:41;;;;;;;0.13;0.13;;;;;;;19.10;53.35;100432.91;5031116;28;20021;-71
2023/03/30 01:52:18;;;;;;;0.15;0.15;;;;;;;19.27;52.59;100437.88;5030933;28;20404;-71
2023/03/30 01:54:58;;;;;;;0.17;0.17;;;;;;;19.27;52.30;100433.25;5030629;28;20041;-72
2023/03/30 01:57:34;;;;;;;0.10;0.10;;;;;;;18.79;53.72;100439.00;5030632;28;20125;-70
2023/03/30 02:00:13;;;;;;;0.20;0.20;;;;;;;19.27;52.23;100435.16;5030783;28;20034;-71
2023/03/30 02:02:43;;;;;;;0.10;0.10;;;;;;;19.19;52.29;100438.53;5014170;28;20057;-72
2023/03/30 02:05:10;;;;;;;0.20;0.20;;;;;;;18.78;52.75;100438.19;5050313;28;20090;-72
2023/03/30 02:07:38;;;;;;;0.10;0.10;;;;;;;19.08;52.07;100440.59;5050366;28;20033;-70
2023/03/30 02:10:08;;;;;;;0.10;0.10;;;;;;;19.30;51.41;100435.38;5050429;28;20036;-72
2023/03/30 02:12:35;;;;;;;0.10;0.10;;;;;;;19.20;51.58;100437.44;5032789;28;20188;-72
2023/03/30 02:15:06;;;;;;;0.20;0.20;;;;;;;19.05;52.35;100432.97;5050333;28;20052;-71
2023/03/30 02:17:34;;;;;;;0.10;0.10;;;;;;;19.53;50.62;100430.22;5051529;28;20037;-71
2023/03/30 02:20:00;;;;;;;0.10;0.10;;;;;;;19.54;50.79;100437.25;5054364;28;20029;-71
2023/03/30 02:22:28;;;;;;;0.10;0.10;;;;;;;19.18;51.46;100432.25;5055067;28;20477;-72
2023/03/30 02:24:56;;;;;;;0.10;0.10;;;;;;;19.10;51.57;100432.91;5054012;28;20029;-71
2023/03/30 02:27:23;;;;;;;0.20;0.20;;;;;;;19.57;50.01;100426.59;5054070;28;20033;-71
2023/03/30 02:29:48;;;;;;;0.13;0.13;;;;;;;19.76;49.90;100418.41;5054289;28;20037;-71
2023/03/30 02:32:18;;;;;;;0.10;0.10;;;;;;;19.58;50.34;100414.59;5053920;28;20276;-70
2023/03/30 02:35:36;;;;;;;0.20;0.20;;;;;;;19.89;49.55;100420.41;5052309;28;20032;-72
2023/03/30 02:38:23;;;;;;;0.13;0.13;;;;;;;19.46;51.18;100427.84;4972201;28;20043;-73
2023/03/30 02:40:55;;;;;;;0.10;0.10;;;;;;;19.47;51.58;100417.75;4972437;28;20045;-71
2023/03/30 02:43:44;;;;;;;0.10;0.10;;;;;;;19.56;51.23;100411.34;4972886;28;20038;-73
2023/03/30 02:46:30;;;;;;;0.20;0.20;;;;;;;18.92;53.55;100406.47;4984596;28;20082;-71
2023/03/30 02:49:13;;;;;;;0.10;0.10;;;;;;;18.67;54.68;100403.22;4972411;28;20039;-71
2023/03/30 02:52:06;;;;;;;0.20;0.20;;;;;;;18.84;54.07;100404.38;4972354;28;20407;-71
2023/03/30 02:55:08;;;;;;;0.10;0.10;;;;;;;19.06;53.95;100417.44;4972213;28;20061;-71
2023/03/30 02:57:57;;;;;;;0.13;0.13;;;;;;;19.05;53.56;100415.81;4971979;28;20046;-71
2023/03/30 03:00:31;;;;;;;0.20;0.20;;;;;;;19.48;52.64;100420.19;4970378;28;20073;-70
2023/03/30 03:03:04;;;;;;;0.10;0.10;;;;;;;19.43;52.30;100416.72;4972177;28;20054;-72
2023/03/30 03:05:31;;;;;;;0.10;0.10;;;;;;;19.09;53.07;100416.84;4957510;28;20054;-73
2023/03/30 03:07:57;;;;;;;0.10;0.10;;;;;;;19.58;51.29;100414.59;4952340;29;20046;-70
2023/03/30 03:10:22;;;;;;;0.13;0.13;;;;;;;19.51;51.02;100414.16;4953206;29;20054;-73
2023/03/30 03:12:48;;;;;;;0.20;0.20;;;;;;;19.31;51.50;100425.28;5028318;28;20040;-71
2023/03/30 03:15:15;;;;;;;0.10;0.10;;;;;;;19.96;49.34;100416.19;5033234;28;20527;-69
2023/03/30 03:17:40;;;;;;;0.20;0.20;;;;;;;19.58;50.27;100430.13;5033339;28;20322;-71
2023/03/30 03:20:09;;;;;;;0.10;0.10;;;;;;;19.87;49.23;100417.16;5033408;28;20504;-71
2023/03/30 03:22:34;;;;;;;0.17;0.17;;;;;;;20.21;48.51;100414.97;5033862;28;20030;-70
2023/03/30 03:25:01;;;;;;;0.10;0.10;;;;;;;19.97;49.17;100414.25;5032963;28;20033;-72
2023/03/30 03:27:27;;;;;;;0.20;0.20;;;;;;;20.03;48.56;100418.53;5033029;28;20029;-72
2023/03/30 03:29:52;;;;;;;0.10;0.10;;;;;;;20.40;48.10;100409.47;5014863;28;20037;-71
2023/03/30 03:32:18;;;;;;;0.20;0.20;;;;;;;20.55;47.21;100406.47;5032863;28;20044;-71
2023/03/30 03:34:44;;;;;;;0.10;0.10;;;;;;;19.65;49.65;100420.50;5031549;28;20420;-70
2023/03/30 03:37:10;;;;;;;0.20;0.20;;;;;;;19.99;48.92;100404.66;5033288;28;20049;-72
2023/03/30 03:39:36;;;;;;;0.10;0.10;;;;;;;19.55;50.30;100407.00;5032482;28;20045;-72
2023/03/30 03:42:03;;;;;;;0.10;0.10;;;;;;;19.19;50.58;100414.00;5032791;28;20442;-70
2023/03/30 03:44:28;;;;;;;0.20;0.20;;;;;;;19.42;50.53;100415.13;5032869;28;20042;-71
2023/03/30 03:46:54;;;;;;;0.20;0.20;;;;;;;19.00;52.71;100397.66;5032490;28;20080;-70
2023/03/30 03:49:19;;;;;;;0.17;0.17;;;;;;;18.74;53.05;100385.44;5033348;28;20024;-71
2023/03/30 03:51:44;;;;;;;0.20;0.20;;;;;;;19.05;53.20;100380.41;5032884;28;20068;-71
2023/03/30 03:54:10;;;;;;;0.10;0.10;;;;;;;18.92;54.09;100378.41;5032586;28;20440;-70
2023/03/30 03:56:35;;;;;;;0.20;0.20;;;;;;;18.57;55.26;100376.09;5032788;28;20030;-70
2023/03/30 03:59:02;;;;;;;0.10;0.10;;;;;;;19.12;53.83;100365.31;5035319;28;20052;-71
2023/03/30 04:01:28;;;;;;;0.10;0.10;;;;;;;18.90;54.64;100372.44;5050927;28;20492;-71
2023/03/30 04:03:54;;;;;;;0.10;0.10;;;;;;;19.21;53.40;100369.03;5062616;28;20484;-71
2023/03/30 04:06:19;;;;;;;0.20;0.20;;;;;;;19.59;52.63;100369.88;5052089;28;20083;-70
2023/03/30 04:08:45;;;;;;;0.10;0.10;;;;;;;19.38;52.67;100365.03;5051786;28;20036;-71
2023/03/30 04:11:11;;;;;;;0.17;0.17;;;;;;;19.61;51.80;100361.41;5052386;28;20033;-72
2023/03/30 04:13:37;;;;;;;0.15;0.15;;;;;;;19.80;51.31;100362.19;5052264;28;20264;-71
2023/03/30 04:16:04;;;;;;;0.10;0.10;;;;;;;18.60;54.96;100379.06;5052468;28;20049;-70
2023/03/30 04:18:32;;;;;;;0.20;0.20;;;;;;;18.76;55.13;100372.34;5052208;28;20354;-70
2023/03/30 04:21:03;;;;;;;0.20;0.20;;;;;;;19.26;53.49;100368.94;5052091;28;20504;-71
2023/03/30 04:23:30;;;;;;;0.20;0.20;;;;;;;18.72;55.54;100374.00;5051880;28;20550;-70
2023/03/30 04:26:03;;;;;;;0.10;0.10;;;;;;;19.13;54.91;100360.69;5051994;28;20050;-73
2023/03/30 04:28:31;;;;;;;0.20;0.20;;;;;;;18.66;55.49;100368.91;5052476;28;20029;-72
2023/03/30 04:31:11;;;;;;;0.10;0.10;;;;;;;18.75;55.43;100365.25;5051512;28;20099;-70
2023/03/30 04:33:43;;;;;;;0.10;0.10;;;;;;;18.89;55.21;100357.19;5050729;28;20036;-72
2023/03/30 04:36:16;;;;;;;0.20;0.20;;;;;;;18.91;55.50;100360.44;5031744;28;20042;-71
2023/03/30 04:38:43;;;;;;;0.17;0.17;;;;;;;18.59;56.61;100360.28;5031791;28;20069;-71
2023/03/30 04:41:12;;;;;;;0.10;0.10;;;;;;;18.81;56.17;100358.66;5031796;28;20059;-74
2023/03/30 04:43:38;;;;;;;0.10;0.10;;;;;;;18.91;56.13;100363.16;5032453;28;20191;-71
2023/03/30 04:46:03;;;;;;;0.20;0.20;;;;;;;18.91;55.90;100360.44;5039083;28;20021;-73
2023/03/30 04:48:29;;;;;;;0.10;0.10;;;;;;;18.82;56.19;100349.41;5051275;28;20029;-71
2023/03/30 04:50:54;;;;;;;0.10;0.10;;;;;;;18.89;56.07;100343.56;5051328;28;20036;-71
2023/03/30 04:53:21;;;;;;;0.20;0.20;;;;;;;18.79;55.88;100355.41;5051552;28;20048;-70
2023/03/30 04:55:49;;;;;;;0.10;0.10;;;;;;;19.12;55.77;100356.38;5051473;28;20361;-71
2023/03/30 04:58:14;;;;;;;0.20;0.20;;;;;;;19.14;55.50;100351.44;5051814;28;20524;-70
2023/03/30 05:00:40;;;;;;;0.20;0.20;;;;;;;19.86;53.33;100342.72;5048928;28;20033;-72
2023/03/30 05:03:06;;;;;;;0.20;0.20;;;;;;;18.87;56.06;100352.03;5033157;28;20143;-72
2023/03/30 05:05:32;;;;;;;0.10;0.10;;;;;;;19.12;55.90;100348.97;5050863;28;20188;-71
2023/03/30 05:07:58;;;;;;;0.10;0.10;;;;;;;19.17;55.69;100353.56;5051036;28;20052;-69
2023/03/30 05:10:23;;;;;;;0.10;0.10;;;;;;;18.35;58.72;100357.53;5049045;28;20025;-70
2023/03/30 05:12:52;;;;;;;0.13;0.13;;;;;;;19.20;56.36;100353.78;5046537;28;20516;-72
2023/03/30 05:15:17;;;;;;;0.10;0.10;;;;;;;19.02;56.52;100348.31;5041527;28;20037;-71
2023/03/30 05:17:42;;;;;;;0.10;0.10;;;;;;;18.73;58.13;100345.69;5051216;28;20056;-71
2023/03/30 05:20:08;;;;;;;0.10;0.10;;;;;;;18.86;58.08;100342.28;5040435;28;20037;-71
2023/03/30 05:22:34;;;;;;;0.10;0.10;;;;;;;18.82;58.37;100349.41;5047616;28;20035;-71
2023/03/30 05:25:00;;;;;;;0.20;0.20;;;;;;;18.07;60.80;100342.84;5048536;28;20029;-70
2023/03/30 05:27:25;;;;;;;0.20;0.20;;;;;;;18.22;60.42;100348.13;5050298;28;20036;-72
2023/03/30 05:29:51;;;;;;;0.13;0.13;;;;;;;18.77;58.50;100343.22;5050739;28;20110;-71
2023/03/30 05:32:16;;;;;;;0.17;0.17;;;;;;;18.99;57.92;100340.72;5044430;28;20082;-70
2023/03/30 05:34:42;;;;;;;0.13;0.13;;;;;;;18.56;59.23;100341.81;5040342;28;20040;-72
2023/03/30 05:37:07;;;;;;;0.20;0.20;;;;;;;18.75;59.32;100346.19;5051934;28;20441;-71
2023/03/30 05:39:33;;;;;;;0.10;0.10;;;;;;;18.92;58.94;100334.84;5049825;28;20049;-72
2023/03/30 05:41:58;;;;;;;0.20;0.20;;;;;;;18.56;60.12;100347.25;5027430;28;20037;-70
2023/03/30 05:44:23;;;;;;;0.22;0.22;;;;;;;18.40;60.97;100346.56;5038574;28;20037;-72
2023/03/30 05:46:49;;;;;;;0.13;0.13;;;;;;;18.92;59.09;100343.00;5043884;28;20032;-72
2023/03/30 05:49:14;;;;;;;0.10;0.10;;;;;;;18.64;59.63;100343.88;5043036;28;20025;-70
2023/03/30 05:51:40;;;;;;;0.10;0.10;;;;;;;18.69;59.41;100352.81;5050285;28;20055;-70
2023/03/30 05:54:05;;;;;;;0.20;0.20;;;;;;;18.29;61.14;100336.91;5050009;28;20033;-72
2023/03/30 05:56:31;;;;;;;0.10;0.10;;;;;;;18.17;61.28;100348.19;5050239;28;20041;-72
2023/03/30 05:58:56;;;;;;;0.10;0.10;;;;;;;18.41;60.74;100354.47;5042524;28;20037;-72
2023/03/30 06:01:22;;;;;;;0.10;0.10;;;;;;;18.60;59.72;100361.91;5042265;28;20025;-70
2023/03/30 06:03:47;;;;;;;0.10;0.10;;;;;;;18.13;62.10;100349.84;5037870;28;20056;-71
2023/03/30 06:06:13;;;;;;;0.20;0.20;;;;;;;19.04;59.42;100351.56;5049924;28;20037;-71
2023/03/30 06:08:40;;;;;;;0.20;0.20;;;;;;;18.11;62.25;100353.94;5049918;28;20416;-71
2023/03/30 06:11:06;;;;;;;0.10;0.10;;;;;;;19.19;58.59;100354.88;5049924;28;20045;-72
2023/03/30 06:13:32;;;;;;;0.10;0.10;;;;;;;18.61;60.22;100366.25;5050534;28;20035;-71
2023/03/30 06:15:58;;;;;;;0.10;0.10;;;;;;;18.10;62.49;100355.84;5040203;28;20038;-70
2023/03/30 06:18:23;;;;;;;0.10;0.10;;;;;;;18.73;59.83;100359.28;5038490;28;20038;-71
2023/03/30 06:20:50;;;;;;;0.10;0.10;;;;;;;18.32;60.92;100366.25;5039299;28;20132;-71
2023/03/30 06:23:16;;;;;;;0.10;0.10;;;;;;;18.66;60.06;100375.16;5024173;28;20033;-71
2023/03/30 06:25:45;;;;;;;0.10;0.10;;;;;;;17.81;62.90;100368.63;5038180;28;20028;-71
2023/03/30 06:28:10;;;;;;;0.20;0.20;;;;;;;18.09;61.62;100384.16;5041712;28;20465;-70
2023/03/30 06:30:37;;;;;;;0.10;0.10;;;;;;;18.72;60.29;100367.75;5049697;28;20045;-69
2023/03/30 06:33:03;;;;;;;0.20;0.20;;;;;;;19.07;58.31;100370.84;5049924;28;20082;-71
2023/03/30 06:35:28;;;;;;;0.10;0.10;;;;;;;17.98;61.79;100379.09;5047906;28;20041;-69
2023/03/30 06:37:54;;;;;;;0.10;0.10;;;;;;;17.80;61.88;100375.16;5049864;28;20029;-72
2023/03/30 06:40:19;;;;;;;0.20;0.20;;;;;;;18.26;61.22;100389.16;5050546;28;20098;-70
2023/03/30 06:42:45;;;;;;;0.20;0.20;;;;;;;17.96;62.03;100397.59;5049848;28;20040;-70
2023/03/30 06:45:12;;;;;;;0.20;0.20;;;;;;;17.94;61.48;100380.75;5049568;28;20083;-71
2023/03/30 06:47:38;;;;;;;0.20;0.20;;;;;;;18.39;59.49;100383.88;5049327;28;20033;-70
2023/03/30 06:50:04;;;;;;;0.20;0.20;;;;;;;18.38;60.07;100378.69;5032209;28;20063;-70
2023/03/30 06:52:32;;;;;;;0.20;0.20;;;;;;;18.87;58.00;100387.44;5032351;28;20028;-70
2023/03/30 06:54:58;;;;;;;0.10;0.10;;;;;;;18.02;60.27;100389.13;5049488;28;20083;-72
2023/03/30 06:57:23;;;;;;;0.10;0.10;;;;;;;18.44;58.34;100393.91;5049538;28;20037;-70
2023/03/30 06:59:48;;;;;;;0.13;0.13;;;;;;;18.38;58.66;100393.13;5056402;28;20522;-69
2023/03/30 07:02:14;;;;;;;0.20;0.20;;;;;;;17.91;60.09;100403.06;5053666;28;20033;-68
2023/03/30 07:04:39;;;;;;;0.10;0.10;;;;;;;17.83;60.50;100412.63;5052171;28;20041;-69
2023/03/30 07:07:05;;;;;;;0.10;0.10;;;;;;;17.96;59.24;100431.03;5054219;28;20036;-73
2023/03/30 07:09:30;;;;;;;0.20;0.20;;;;;;;18.39;58.20;100410.25;5053546;28;20037;-70
2023/03/30 07:11:55;;;;;;;0.10;0.10;;;;;;;18.56;57.75;100405.22;5043306;28;20075;-73
2023/03/30 07:14:21;;;;;;;0.30;0.30;;;;;;;18.27;57.16;100401.69;5015711;28;20037;-70
2023/03/30 07:16:47;;;;;;;0.30;0.30;;;;;;;18.14;57.77;100429.53;5034055;28;20465;-70
2023/03/30 07:19:13;;;;;;;0.20;0.20;;;;;;;18.58;56.40;100413.91;5034443;28;20053;-70
2023/03/30 07:21:38;;;;;;;0.10;0.10;;;;;;;18.20;57.51;100425.69;5033831;28;20492;-70
2023/03/30 07:24:04;;;;;;;0.17;0.17;;;;;;;18.58;56.48;100432.13;5040592;28;20033;-71
2023/03/30 07:26:30;;;;;;;0.00;0.00;;;;;;;17.54;59.14;100428.06;5053694;28;20033;-71
2023/03/30 07:28:55;;;;;;;0.17;0.17;;;;;;;17.45;59.14;100433.22;5053280;28;20071;-70
2023/03/30 07:31:23;;;;;;;0.20;0.20;;;;;;;17.86;58.67;100433.00;5053875;28;20016;-70
2023/03/30 07:33:48;;;;;;;0.20;0.20;;;;;;;17.34;60.84;100433.56;5051057;28;20126;-71
2023/03/30 07:36:14;;;;;;;0.17;0.17;;;;;;;18.34;57.33;100423.91;5053358;28;20059;-70
2023/03/30 07:38:40;;;;;;;0.10;0.10;;;;;;;17.23;60.42;100426.56;5053492;28;20060;-70
2023/03/30 07:41:11;;;;;;;0.10;0.10;;;;;;;17.52;59.92;100446.53;5053796;28;20508;-71
2023/03/30 07:43:39;;;;;;;;;;;;;;;18.34;57.79;100434.78;5054134;28;20029;-69
2023/03/30 07:46:04;;;;;;;0.15;0.15;;;;;;;18.01;57.93;100441.88;5046639;28;19925;-70
2023/03/30 07:48:30;;;;;;;0.20;0.20;;;;;;;17.71;59.13;100469.25;5033327;28;20532;-71
2023/03/30 07:51:10;;;;;;;0.20;0.20;;;;;;;17.37;60.80;100457.47;5033365;28;20504;-70
2023/03/30 07:53:36;;;;;;;0.20;0.20;;;;;;;17.93;58.99;100461.50;5033371;28;20113;-71
2023/03/30 07:56:02;;;;;;;0.10;0.10;;;;;;;17.43;59.66;100459.06;5033086;28;20037;-69
2023/03/30 07:58:28;;;;;;;0.13;0.13;;;;;;;17.40;60.21;100465.03;5033563;28;20052;-72
2023/03/30 08:00:54;;;;;;;0.20;0.20;;;;;;;17.95;58.63;100470.19;5050468;28;20043;-70
2023/03/30 08:03:23;;;;;;;0.10;0.10;;;;;;;17.57;60.13;100471.00;5052653;28;20103;-70
2023/03/30 08:05:58;;;;;;;0.20;0.20;;;;;;;17.47;60.39;100473.72;5052934;28;20512;-70
2023/03/30 08:08:23;;;;;;;0.30;0.30;;;;;;;17.01;61.15;100466.84;5052912;28;20604;-70
2023/03/30 08:10:49;;;;;;;0.20;0.20;;;;;;;17.01;61.34;100494.81;5052773;28;20196;-69
2023/03/30 08:13:15;;;;;;;0.20;0.20;;;;;;;17.39;60.34;100477.81;5053651;28;20044;-70
2023/03/30 08:15:40;;;;;;;0.20;0.20;;;;;;;17.14;59.82;100487.97;5052668;28;20419;-70
2023/03/30 08:18:06;;;;;;;0.10;0.10;;;;;;;17.74;58.85;100476.84;5052821;28;20060;-71
2023/03/30 08:20:36;;;;;;;0.20;0.20;;;;;;;17.86;58.47;100485.47;5052347;28;20063;-70
2023/03/30 08:23:03;;;;;;;0.20;0.20;;;;;;;17.93;58.58;100488.69;5052642;28;20040;-70
2023/03/30 08:25:29;;;;;;;0.20;0.20;;;;;;;17.64;58.42;100479.63;5053214;28;20036;-70
2023/03/30 08:27:55;;;;;;;0.20;0.20;;;;;;;17.37;59.33;100481.91;5052458;28;20044;-71
2023/03/30 08:30:20;;;;;;;0.20;0.20;;;;;;;17.42;58.86;100499.00;5052495;28;20029;-70
2023/03/30 08:32:46;;;;;;;0.20;0.20;;;;;;;17.63;58.64;100507.09;5052621;28;20059;-69
2023/03/30 08:35:12;;;;;;;0.10;0.10;;;;;;;18.27;57.04;100496.88;5050339;28;20522;-69
2023/03/30 08:37:38;;;;;;;0.20;0.20;;;;;;;18.81;54.95;100488.53;5052214;28;20100;-69
2023/03/30 08:40:09;;;;;;;0.20;0.20;;;;;;;17.78;57.79;100485.25;5053027;28;20619;-72
2023/03/30 08:42:40;;;;;;;0.20;0.20;;;;;;;17.81;57.27;100495.59;5052515;28;20516;-72
2023/03/30 08:45:09;;;;;;;0.10;0.10;;;;;;;17.92;57.63;100500.66;5052080;28;20037;-69
2023/03/30 08:47:38;;;;;;;0.10;0.10;;;;;;;17.68;56.87;100502.44;5051873;28;20047;-70
2023/03/30 08:50:30;;;;;;;0.10;0.10;;;;;;;17.63;57.39;100502.44;5052398;28;20040;-71
2023/03/30 08:52:55;;;;;;;0.20;0.20;;;;;;;17.42;58.18;100499.00;5033774;28;20060;-72
2023/03/30 08:55:43;;;;;;;0.15;0.15;;;;;;;18.13;56.04;100495.91;5052728;28;20416;-69
2023/03/30 08:58:21;;;;;;;0.17;0.17;;;;;;;18.30;55.50;100491.69;5052169;28;20032;-70
2023/03/30 09:00:58;;;;;;;0.20;0.20;;;;;;;18.16;55.24;100512.44;5068629;28;20182;-71
2023/03/30 09:03:35;;;;;;;0.10;0.10;;;;;;;18.81;53.23;100511.13;5071751;28;20052;-69
2023/03/30 09:06:45;;;;;;;0.17;0.17;;;;;;;18.47;54.09;100507.63;5052098;28;20068;-71
2023/03/30 09:09:14;;;;;;;0.20;0.20;;;;;;;18.05;54.94;100502.75;4969799;28;20047;-70
2023/03/30 09:11:40;;;;;;;0.10;0.10;;;;;;;18.29;54.42;100503.66;4969844;28;20141;-71
2023/03/30 09:14:13;;;;;;;0.20;0.20;;;;;;;18.19;55.25;100506.47;4969750;28;20420;-69
2023/03/30 09:16:57;;;;;;;0.20;0.20;;;;;;;17.97;55.73;100516.94;4969443;28;20065;-71
2023/03/30 09:19:31;;;;;;;0.10;0.10;;;;;;;18.02;55.87;100514.22;4970222;28;20070;-70
2023/03/30 09:22:00;;;;;;;0.10;0.10;;;;;;;17.90;56.56;100519.16;4969837;28;20558;-70
2023/03/30 09:24:26;;;;;;;0.20;0.20;;;;;;;17.99;55.39;100547.38;4969923;28;20074;-71
2023/03/30 09:27:01;;;;;;;0.15;0.15;;;;;;;18.08;56.34;100525.84;4968934;28;20101;-69
2023/03/30 09:29:47;;;;;;;0.20;0.20;;;;;;;18.85;54.56;100530.44;4969913;28;20042;-71
2023/03/30 09:32:39;;;;;;;0.20;0.20;;;;;;;18.56;55.09;100537.75;4969653;28;20454;-70
2023/03/30 09:35:20;;;;;;;0.10;0.10;;;;;;;18.37;56.02;100524.81;4969256;28;20042;-71
2023/03/30 09:37:45;;;;;;;0.10;0.10;;;;;;;18.88;54.90;100532.56;4969870;28;20042;-69
2023/03/30 09:40:59;;;;;;;0.20;0.20;;;;;;;18.91;54.16;100548.31;4970505;28;20462;-69
2023/03/30 09:43:34;;;;;;;0.20;0.20;;;;;;;18.20;55.07;100539.94;4912946;29;20036;-73
2023/03/30 09:46:05;;;;;;;0.20;0.20;;;;;;;18.57;54.19;100533.94;4917183;29;20031;-70
2023/03/30 09:48:41;;;;;;;0.20;0.20;;;;;;;18.59;53.06;100529.03;4950582;29;20166;-70
2023/03/30 09:51:17;;;;;;;0.20;0.20;;;;;;;18.93;52.66;100530.59;4950390;29;20122;-70
2023/03/30 09:53:45;;;;;;;0.17;0.17;;;;;;;18.44;53.08;100532.69;4950766;29;20126;-71
2023/03/30 09:56:37;;;;;;;0.20;0.20;;;;;;;18.74;51.18;100539.78;4950404;29;20444;-72
2023/03/30 09:59:31;;;;;;;0.10;0.10;;;;;;;20.20;48.24;100517.06;4950397;29;20062;-69
2023/03/30 10:02:17;;;;;;;0.20;0.20;;;;;;;20.37;48.99;100528.25;4950510;28;20471;-70
2023/03/30 10:04:53;;;;;;;0.20;0.20;;;;;;;19.70;49.11;100536.81;4949787;29;20087;-70
2023/03/30 10:07:30;;;;;;;0.13;0.13;;;;;;;18.99;50.07;100521.28;4950819;29;20039;-71
2023/03/30 10:09:59;;;;;;;0.20;0.20;;;;;;;18.78;50.61;100532.66;4950173;29;20039;-70
2023/03/30 10:12:25;;;;;;;0.10;0.10;;;;;;;19.38;48.80;100533.97;4950142;29;20049;-71
2023/03/30 10:14:56;;;;;;;0.10;0.10;;;;;;;19.38;49.58;100540.22;4950535;29;20043;-71
2023/03/30 10:17:24;;;;;;;0.20;0.20;;;;;;;19.37;49.22;100537.78;4950011;28;20044;-70
2023/03/30 10:19:52;;;;;;;0.10;0.10;;;;;;;19.79;49.08;100532.34;4975291;28;20119;-70
2023/03/30 10:22:23;;;;;;;0.10;0.10;;;;;;;20.06;48.19;100544.25;5051523;28;20457;-70
2023/03/30 10:24:49;;;;;;;;;;;;;;;20.63;46.60;100543.09;5051477;28;20120;-70
2023/03/30 10:27:15;;;;;;;0.10;0.10;;;;;;;19.15;49.51;100549.16;5050805;28;19912;-70
2023/03/30 10:29:45;;;;;;;0.10;0.10;;;;;;;19.49;48.12;100562.72;5050763;28;20477;-70
2023/03/30 10:32:16;;;;;;;0.20;0.20;;;;;;;20.24;47.22;100552.75;5050882;28;20112;-71
2023/03/30 10:34:45;;;;;;;0.20;0.20;;;;;;;19.52;48.20;100560.22;5048395;28;20029;-70
2023/03/30 10:37:15;;;;;;;0.20;0.20;;;;;;;19.81;48.23;100562.88;5049111;28;20056;-70
2023/03/30 10:39:44;;;;;;;0.17;0.17;;;;;;;19.34;48.72;100552.00;5047658;28;20041;-70
2023/03/30 10:42:16;;;;;;;0.17;0.17;;;;;;;19.44;48.47;100557.34;5046328;28;20033;-69
2023/03/30 10:45:04;;;;;;;0.10;0.10;;;;;;;19.24;48.96;100564.59;5054335;28;20033;-70
2023/03/30 10:47:42;;;;;;;0.10;0.10;;;;;;;18.99;49.54;100558.59;5054378;28;20047;-68
2023/03/30 10:50:23;;;;;;;0.10;0.10;;;;;;;19.38;49.14;100563.94;5054541;28;20052;-68
2023/03/30 10:53:15;;;;;;;0.10;0.10;;;;;;;19.27;49.77;100568.66;5054776;28;20032;-70
2023/03/30 10:55:52;;;;;;;0.10;0.10;;;;;;;19.32;49.77;100562.34;5054101;28;20025;-71
2023/03/30 10:58:26;;;;;;;0.17;0.17;;;;;;;19.58;48.60;100580.88;5054515;28;20051;-71
2023/03/30 11:01:07;;;;;;;0.20;0.20;;;;;;;19.73;49.19;100572.53;5052175;28;20061;-69
2023/03/30 11:03:36;;;;;;;0.20;0.20;;;;;;;20.26;47.70;100577.81;5038219;28;20065;-71
2023/03/30 11:06:32;;;;;;;0.20;0.20;;;;;;;20.24;46.74;100580.84;5046321;28;20028;-71
2023/03/30 11:09:02;;;;;;;0.10;0.10;;;;;;;19.94;46.15;100568.41;5008483;28;20061;-69
2023/03/30 11:11:38;;;;;;;0.20;0.20;;;;;;;20.22;46.40;100596.72;5001342;28;20553;-67
2023/03/30 11:14:12;;;;;;;0.20;0.20;;;;;;;19.68;47.39;100566.28;5002798;28;20132;-69
2023/03/30 11:16:49;;;;;;;0.10;0.10;;;;;;;19.26;47.51;100573.28;5002828;28;20692;-69
2023/03/30 11:19:33;;;;;;;0.20;0.20;;;;;;;19.64;47.02;100566.06;4990285;28;20117;-70
2023/03/30 11:22:23;;;;;;;0.10;0.10;;;;;;;19.35;47.15;100556.34;5004537;28;20065;-71
2023/03/30 11:24:54;;;;;;;0.10;0.10;;;;;;;19.82;46.79;100578.13;4995055;28;20029;-70
2023/03/30 11:27:29;;;;;;;0.10;0.10;;;;;;;19.39;47.46;100581.91;5000089;28;20553;-70
2023/03/30 11:29:55;;;;;;;0.10;0.10;;;;;;;19.51;47.39;100591.31;4998605;28;20046;-71
2023/03/30 11:33:05;;;;;;;0.10;0.10;;;;;;;18.87;49.03;100571.81;5004286;28;20092;-72
2023/03/30 11:35:49;;;;;;;0.10;0.10;;;;;;;19.30;48.89;100577.06;4995141;28;20052;-71
2023/03/30 11:38:23;;;;;;;0.20;0.20;;;;;;;18.60;49.74;100579.63;4997294;28;20092;-69
2023/03/30 11:41:05;;;;;;;0.20;0.20;;;;;;;19.43;49.18;100588.41;4994659;28;20108;-69
2023/03/30 11:43:31;;;;;;;0.20;0.20;;;;;;;19.96;47.03;100576.31;5005297;28;20092;-70
2023/03/30 11:46:07;;;;;;;0.10;0.10;;;;;;;19.74;47.73;100579.59;5018311;28;20137;-70